^^
B2 Weather Station Historical Data
 
Daily Summary for October 21, 2019 Units:  English    Metric   Both
Daily Weekly Monthly Yearly Custom
  Current: High: Low: Average:
Temperature: 54.3 °F 54.3 °F 49.2 °F 51.3 °F
Dew Point: 52.3 °F 52.5 °F 48.1 °F 50.2 °F
Humidity: 93% 96% 93% 96%
Wind Speed: 3.5mph 7mph 0mph 2.3mph
Wind Gust: 0.5mph 3.5mph - -
WindSE - - East
Pressure: 29.77 in 29.85 in 29.77 in -
Precipitation: 0 in      
Historical Graphs
 
 
Tabular Data for October 21, 2019
Time Temperature Dew Point Pressure Wind Wind Speed Wind Gust Humidity Rainfall Rate (Hourly) solar
00:00 49.2 °F 48.1 °F 29.85 in East 3.5 mph 0.7 mph 96% 0 in 0.00 W/m2
00:05 49.3 °F 48.2 °F 29.85 in ENE 3.5 mph 1.1 mph 96% 0 in 0.00 W/m2
00:10 49.3 °F 48.2 °F 29.85 in ENE 3.5 mph 0.7 mph 96% 0 in 0.00 W/m2
00:15 49.4 °F 48.3 °F 29.85 in Calm     96% 0 in 0.00 W/m2
00:20 49.4 °F 48.3 °F 29.84 in ENE 3.5 mph 0.1 mph 96% 0 in 0.00 W/m2
00:25 49.5 °F 48.4 °F 29.83 in East 4.6 mph 2.1 mph 96% 0 in 0.00 W/m2
00:30 49.6 °F 48.5 °F 29.83 in ESE 4.6 mph 1.5 mph 96% 0 in 0.00 W/m2
00:35 49.6 °F 48.5 °F 29.83 in ENE 3 mph 0.1 mph 96% 0 in 0.00 W/m2
00:40 49.7 °F 48.6 °F 29.82 in ENE 6.9 mph 2.6 mph 96% 0 in 0.00 W/m2
00:45 49.7 °F 48.6 °F 29.81 in East 6.9 mph 3.2 mph 96% 0 in 0.00 W/m2
00:50 49.8 °F 48.7 °F 29.81 in ENE 5 mph 2.3 mph 96% 0 in 0.00 W/m2
00:55 49.8 °F 48.7 °F 29.80 in ENE 5.8 mph 2.9 mph 96% 0 in 0.00 W/m2
01:00 49.9 °F 48.8 °F 29.80 in ENE 5 mph 1.3 mph 96% 0 in 0.00 W/m2
01:05 49.9 °F 48.8 °F 29.80 in East 3.5 mph 1.2 mph 96% 0 in 0.00 W/m2
01:10 50.1 °F 49 °F 29.80 in Calm     96% 0 in 0.00 W/m2
01:15 50.3 °F 49.2 °F 29.80 in Calm     96% 0 in 0.00 W/m2
01:20 50.5 °F 49.4 °F 29.81 in Calm     96% 0 in 0.00 W/m2
01:25 50.7 °F 49.6 °F 29.80 in East 3.5 mph 0.6 mph 96% 0 in 0.00 W/m2
01:30 50.8 °F 49.7 °F 29.81 in Calm     96% 0 in 0.00 W/m2
01:35 51 °F 49.9 °F 29.81 in Calm     96% 0 in 0.00 W/m2
01:40 51.1 °F 50 °F 29.80 in Calm     96% 0 in 0.00 W/m2
01:45 51.3 °F 50.2 °F 29.81 in Calm     96% 0 in 0.00 W/m2
01:50 51.5 °F 50.4 °F 29.81 in Calm     96% 0 in 0.00 W/m2
01:55 51.6 °F 50.5 °F 29.81 in Calm     96% 0 in 0.00 W/m2
02:00 51.8 °F 50.7 °F 29.80 in Calm     96% 0 in 0.00 W/m2
02:05 51.8 °F 50.7 °F 29.80 in Calm     96% 0 in 0.00 W/m2
02:10 51.9 °F 50.8 °F 29.79 in Calm     96% 0 in 0.00 W/m2
02:15 51.9 °F 50.8 °F 29.80 in Calm     96% 0 in 0.00 W/m2
02:20 52.1 °F 51 °F 29.80 in Calm     96% 0 in 0.00 W/m2
02:25 52.2 °F 51.1 °F 29.80 in Calm     96% 0 in 0.00 W/m2
02:30 52.3 °F 51.2 °F 29.80 in Calm     96% 0 in 0.00 W/m2
02:35 52.6 °F 51.5 °F 29.79 in Calm     96% 0 in 0.00 W/m2
02:40 52.9 °F 51.8 °F 29.79 in Calm     96% 0 in 0.00 W/m2
02:45 53.1 °F 52 °F 29.79 in ESE 3.5 mph 0.3 mph 96% 0 in 0.00 W/m2
02:50 53.3 °F 51.9 °F 29.78 in Calm     95% 0 in 0.00 W/m2
02:55 53.4 °F 52.3 °F 29.78 in ESE 2.3 mph 0.4 mph 96% 0 in 0.00 W/m2
03:00 53.6 °F 52.2 °F 29.78 in ESE 3.5 mph 0.2 mph 95% 0 in 0.00 W/m2
03:05 53.7 °F 52.3 °F 29.78 in ESE 6.9 mph 3.5 mph 95% 0 in 0.00 W/m2
03:10 53.9 °F 52.5 °F 29.78 in ESE 7 mph 2.2 mph 95% 0 in 0.00 W/m2
03:15 54 °F 52.3 °F 29.77 in ESE 3.5 mph 1.6 mph 94% 0 in 0.00 W/m2
03:20 54.2 °F 52.5 °F 29.78 in ESE 3.5 mph 1.7 mph 94% 0 in 0.00 W/m2
03:25 54.3 °F 52.3 °F 29.77 in SE 3.5 mph 0.5 mph 93% 0 in 0.00 W/m2
Bourbonnais, Illinois, USA
Compliments of Weather Underground - 2 mb